createdAt,value
2022-10-25T00:01:21.991Z,96559.69
2022-10-25T00:03:50.493Z,96565.84
2022-10-25T00:06:19.057Z,96558.03
2022-10-25T00:08:47.635Z,96571.50
2022-10-25T00:11:20.832Z,96580.50
2022-10-25T00:13:51.380Z,96576.81
2022-10-25T00:16:22.556Z,96573.53
2022-10-25T00:18:51.395Z,96584.16
2022-10-25T00:21:20.363Z,96591.16
2022-10-25T00:23:49.289Z,96577.91
2022-10-25T00:26:17.639Z,96581.94
2022-10-25T00:28:46.059Z,96577.66
2022-10-25T00:31:17.357Z,96585.44
2022-10-25T00:33:46.471Z,96586.59
2022-10-25T00:36:17.165Z,96594.31
2022-10-25T00:38:46.285Z,96592.16
2022-10-25T00:41:16.045Z,96587.91
2022-10-25T00:43:47.903Z,96597.25
2022-10-25T00:46:24.515Z,96599.41
2022-10-25T00:48:58.202Z,96603.00
2022-10-25T00:51:31.441Z,96601.50
2022-10-25T00:53:59.893Z,96604.53
2022-10-25T00:56:32.996Z,96602.22
2022-10-25T00:59:05.365Z,96603.56
2022-10-25T01:01:35.497Z,96607.22
2022-10-25T01:04:08.658Z,96607.44
2022-10-25T01:06:40.411Z,96602.28
2022-10-25T01:09:11.029Z,96588.34
2022-10-25T01:11:39.449Z,96587.50
2022-10-25T01:14:10.523Z,96587.72
2022-10-25T01:16:49.265Z,96581.38
2022-10-25T01:19:42.282Z,96571.41
2022-10-25T01:22:17.144Z,96572.69
2022-10-25T01:25:04.320Z,96578.22
2022-10-25T01:30:31.199Z,96573.59
2022-10-25T01:33:16.546Z,96577.09
2022-10-25T01:35:54.401Z,96571.41
2022-10-25T01:38:34.340Z,96567.59
2022-10-25T01:41:12.759Z,96566.56
2022-10-25T01:43:46.746Z,96556.59
2022-10-25T01:46:25.260Z,96557.41
2022-10-25T01:49:02.243Z,96558.25
2022-10-25T01:51:30.549Z,96555.78
2022-10-25T01:53:58.992Z,96563.75
2022-10-25T01:56:30.917Z,96552.94
2022-10-25T01:59:14.456Z,96551.09
2022-10-25T02:01:55.216Z,96542.31
2022-10-25T02:04:40.329Z,96543.97
2022-10-25T02:07:12.221Z,96554.41
2022-10-25T02:09:50.833Z,96557.88
2022-10-25T02:12:26.543Z,96549.28
2022-10-25T02:15:05.455Z,96550.09
2022-10-25T02:17:37.844Z,96544.97
2022-10-25T02:20:10.035Z,96547.44
2022-10-25T02:22:39.401Z,96538.81
2022-10-25T02:25:10.552Z,96535.53
2022-10-25T02:27:40.799Z,96537.34
2022-10-25T02:30:10.230Z,96539.03
2022-10-25T02:32:38.587Z,96554.59
2022-10-25T02:35:15.498Z,96541.13
2022-10-25T02:37:44.410Z,96553.88
2022-10-25T02:40:13.792Z,96548.38
2022-10-25T02:42:42.124Z,96551.50
2022-10-25T02:45:11.541Z,96540.72
2022-10-25T02:47:40.716Z,96543.00
2022-10-25T02:50:10.968Z,96544.47
2022-10-25T02:52:42.120Z,96543.28
2022-10-25T02:55:11.004Z,96535.97
2022-10-25T02:57:39.604Z,96541.09
2022-10-25T03:00:10.492Z,96548.91
2022-10-25T03:02:38.827Z,96554.00
2022-10-25T03:05:07.736Z,96561.16
2022-10-25T03:07:37.432Z,96555.84
2022-10-25T03:10:06.796Z,96566.47
2022-10-25T03:12:35.126Z,96566.47
2022-10-25T03:15:03.451Z,96569.94
2022-10-25T03:17:31.837Z,96568.13
2022-10-25T03:20:00.173Z,96580.78
2022-10-25T03:22:28.565Z,96574.19
2022-10-25T03:24:58.359Z,96580.31
2022-10-25T03:27:26.701Z,96572.16
2022-10-25T03:29:54.997Z,96586.09
2022-10-25T03:32:23.312Z,96586.91
2022-10-25T03:34:51.676Z,96585.88
2022-10-25T03:37:19.988Z,96592.06
2022-10-25T03:39:48.319Z,96587.72
2022-10-25T03:42:17.988Z,96602.03
2022-10-25T03:44:46.306Z,96600.53
2022-10-25T03:47:14.637Z,96590.13
2022-10-25T03:49:43.137Z,96591.75
2022-10-25T03:52:12.224Z,96601.38
2022-10-25T03:54:42.289Z,96600.19
2022-10-25T03:57:10.705Z,96603.66
2022-10-25T03:59:40.439Z,96600.84
2022-10-25T04:02:08.877Z,96602.69
2022-10-25T04:04:37.319Z,96608.66
2022-10-25T04:07:05.762Z,96601.00
2022-10-25T04:09:34.361Z,96601.00
2022-10-25T04:12:02.938Z,96596.72
2022-10-25T04:14:31.475Z,96600.38
2022-10-25T04:17:01.223Z,96603.84
2022-10-25T04:19:29.512Z,96604.69
2022-10-25T04:21:58.305Z,96610.00
2022-10-25T04:24:26.695Z,96606.50
2022-10-25T04:26:54.981Z,96610.19
2022-10-25T04:29:23.637Z,96607.34
2022-10-25T04:31:51.977Z,96606.50
2022-10-25T04:34:21.743Z,96595.44
2022-10-25T04:36:50.086Z,96601.09
2022-10-25T04:39:18.433Z,96607.78
2022-10-25T04:41:46.755Z,96605.44
2022-10-25T04:44:15.340Z,96610.75
2022-10-25T04:46:46.435Z,96604.81
2022-10-25T04:49:17.404Z,96609.13
2022-10-25T04:51:47.246Z,96616.94
2022-10-25T04:54:15.811Z,96613.25
2022-10-25T04:56:44.152Z,96619.38
2022-10-25T04:59:13.311Z,96616.72
2022-10-25T05:01:41.791Z,96622.03
2022-10-25T05:04:10.279Z,96623.88
2022-10-25T05:06:38.625Z,96621.22
2022-10-25T05:09:08.308Z,96604.47
2022-10-25T05:14:10.702Z,96611.97
2022-10-25T05:16:39.378Z,96613.16
2022-10-25T05:19:08.042Z,96606.34
2022-10-25T05:21:36.481Z,96602.03
2022-10-25T05:24:05.258Z,96609.19
2022-10-25T05:26:35.042Z,96609.19
2022-10-25T05:29:05.616Z,96610.19
2022-10-25T05:31:38.587Z,96610.84
2022-10-25T05:34:06.959Z,96605.53
2022-10-25T05:36:35.275Z,96602.88
2022-10-25T05:39:03.704Z,96601.88
2022-10-25T05:41:34.739Z,96600.84
2022-10-25T05:44:07.282Z,96610.66
2022-10-25T05:46:35.652Z,96611.47
2022-10-25T05:49:05.011Z,96605.34
2022-10-25T05:51:36.260Z,96616.31
2022-10-25T05:54:07.576Z,96613.84
2022-10-25T05:56:36.325Z,96620.16
2022-10-25T05:59:09.095Z,96619.50
2022-10-25T06:01:39.608Z,96631.78
2022-10-25T06:04:08.613Z,96618.31
2022-10-25T06:06:37.873Z,96626.13
2022-10-25T06:09:06.955Z,96635.75
2022-10-25T06:11:35.872Z,96631.09
2022-10-25T06:14:06.278Z,96637.22
2022-10-25T06:16:34.941Z,96643.19
2022-10-25T06:19:03.293Z,96643.00
2022-10-25T06:21:32.047Z,96646.97
2022-10-25T06:24:01.764Z,96648.16
2022-10-25T06:26:31.642Z,96657.75
2022-10-25T06:29:01.565Z,96664.53
2022-10-25T06:31:31.895Z,96658.41
2022-10-25T06:34:01.095Z,96665.38
2022-10-25T06:36:31.107Z,96668.88
2022-10-25T06:39:05.476Z,96680.16
2022-10-25T06:41:37.673Z,96673.00
2022-10-25T06:44:07.561Z,96681.78
2022-10-25T06:49:27.868Z,96679.13
2022-10-25T06:51:56.271Z,96689.59
2022-10-25T06:54:26.626Z,96693.09
2022-10-25T06:56:55.129Z,96691.25
2022-10-25T06:59:23.703Z,96687.78
2022-10-25T07:01:55.186Z,96696.72
2022-10-25T07:04:24.309Z,96697.56
2022-10-25T07:06:55.189Z,96695.53
2022-10-25T07:09:23.899Z,96707.47
2022-10-25T07:11:52.423Z,96704.47
2022-10-25T07:14:20.796Z,96701.66
2022-10-25T07:16:49.113Z,96710.91
2022-10-25T07:19:18.795Z,96708.13
2022-10-25T07:21:47.154Z,96714.25
2022-10-25T07:24:15.472Z,96722.88
2022-10-25T07:26:44.149Z,96713.53
2022-10-25T07:29:12.644Z,96712.34
2022-10-25T07:31:44.265Z,96712.19
2022-10-25T07:34:14.614Z,96709.19
2022-10-25T07:36:45.608Z,96709.66
2022-10-25T07:39:14.000Z,96712.97
2022-10-25T07:41:42.360Z,96709.28
2022-10-25T07:44:15.911Z,96710.78
2022-10-25T07:46:45.229Z,96711.22
2022-10-25T07:49:15.238Z,96710.88
2022-10-25T07:51:45.055Z,96713.19
2022-10-25T07:54:13.483Z,96723.44
2022-10-25T07:56:41.901Z,96724.94
2022-10-25T07:59:10.268Z,96715.94
2022-10-25T08:01:38.744Z,96718.78
2022-10-25T08:04:07.139Z,96715.94
2022-10-25T08:06:36.215Z,96711.44
2022-10-25T08:09:14.545Z,96710.28
2022-10-25T08:11:48.809Z,96709.91
2022-10-25T08:14:17.391Z,96720.53
2022-10-25T08:16:45.806Z,96716.88
2022-10-25T08:19:14.159Z,96704.06
2022-10-25T08:21:42.543Z,96710.50
2022-10-25T08:24:12.504Z,96700.78
2022-10-25T08:26:40.901Z,96706.38
2022-10-25T08:29:09.385Z,96703.16
2022-10-25T08:31:37.842Z,96706.75
2022-10-25T08:34:06.229Z,96709.63
2022-10-25T08:36:34.764Z,96705.03
2022-10-25T08:39:03.123Z,96705.13
2022-10-25T08:41:48.036Z,96706.59
2022-10-25T08:44:21.836Z,96708.06
2022-10-25T08:46:58.324Z,96705.66
2022-10-25T08:49:33.055Z,96696.31
2022-10-25T08:52:02.885Z,96691.28
2022-10-25T08:54:35.837Z,96693.66
2022-10-25T08:57:16.710Z,96704.72
2022-10-25T08:59:50.139Z,96699.31
2022-10-25T09:02:24.498Z,96695.00
2022-10-25T09:04:53.008Z,96702.34
2022-10-25T09:07:46.735Z,96699.03
2022-10-25T09:10:24.275Z,96702.34
2022-10-25T09:13:08.341Z,96706.91
2022-10-25T09:15:54.756Z,96694.13
2022-10-25T09:18:33.128Z,96692.44
2022-10-25T09:21:11.553Z,96698.91
2022-10-25T09:23:51.589Z,96704.94
2022-10-25T09:26:39.283Z,96697.19
2022-10-25T09:29:25.177Z,96708.56
2022-10-25T09:31:57.370Z,96707.84
2022-10-25T09:34:29.500Z,96705.91
2022-10-25T09:37:05.108Z,96708.69
2022-10-25T09:39:38.818Z,96713.28
2022-10-25T09:42:15.840Z,96711.13
2022-10-25T09:44:51.021Z,96718.16
2022-10-25T09:47:29.224Z,96711.44
2022-10-25T09:50:02.606Z,96711.69
2022-10-25T09:52:38.033Z,96715.44
2022-10-25T09:55:30.165Z,96718.97
2022-10-25T09:57:58.520Z,96719.00
2022-10-25T10:00:29.434Z,96720.25
2022-10-25T10:02:58.001Z,96718.44
2022-10-25T10:05:26.718Z,96719.06
2022-10-25T10:07:55.491Z,96714.97
2022-10-25T10:10:27.676Z,96720.91
2022-10-25T10:13:01.595Z,96717.84
2022-10-25T10:15:36.591Z,96712.50
2022-10-25T10:18:25.799Z,96721.75
2022-10-25T10:20:59.384Z,96718.00
2022-10-25T10:23:29.521Z,96713.09
2022-10-25T10:26:01.539Z,96714.72
2022-10-25T10:28:30.187Z,96713.50
2022-10-25T10:31:00.552Z,96703.22
2022-10-25T10:33:33.930Z,96699.97
2022-10-25T10:36:28.040Z,96700.81
2022-10-25T10:39:13.615Z,96703.09
2022-10-25T10:41:58.313Z,96694.28
2022-10-25T10:44:26.678Z,96695.13
2022-10-25T10:46:56.928Z,96685.69
2022-10-25T10:49:36.520Z,96686.50
2022-10-25T10:52:06.012Z,96681.22
2022-10-25T10:54:37.877Z,96676.69
2022-10-25T10:57:08.233Z,96682.28
2022-10-25T10:59:41.197Z,96678.34
2022-10-25T11:02:27.450Z,96674.88
2022-10-25T11:04:57.958Z,96671.81
2022-10-25T11:07:36.853Z,96669.53
2022-10-25T11:10:23.842Z,96661.13
2022-10-25T11:13:10.647Z,96667.09
2022-10-25T11:16:11.419Z,96664.81
2022-10-25T11:19:02.916Z,96666.25
2022-10-25T11:21:55.383Z,96664.16
2022-10-25T11:24:34.846Z,96657.56
2022-10-25T11:27:12.317Z,96653.41
2022-10-25T11:30:04.776Z,96656.47
2022-10-25T11:33:15.112Z,96654.34
2022-10-25T11:36:02.255Z,96643.19
2022-10-25T11:38:43.016Z,96640.06
2022-10-25T11:41:24.904Z,96644.16
2022-10-25T11:44:05.848Z,96643.28
2022-10-25T11:46:44.432Z,96648.19
2022-10-25T11:49:34.384Z,96644.03
2022-10-25T11:52:26.806Z,96642.06
2022-10-25T11:55:05.517Z,96631.91
2022-10-25T11:57:44.240Z,96634.31
2022-10-25T12:00:17.035Z,96634.25
2022-10-25T12:03:07.003Z,96625.13
2022-10-25T12:05:44.695Z,96620.50
2022-10-25T12:08:27.509Z,96616.38
2022-10-25T12:10:59.627Z,96613.06
2022-10-25T12:13:32.456Z,96610.50
2022-10-25T12:16:01.371Z,96608.22
2022-10-25T12:18:36.600Z,96608.13
2022-10-25T12:21:06.805Z,96603.72
2022-10-25T12:23:43.962Z,96598.31
2022-10-25T12:26:21.124Z,96603.59
2022-10-25T12:28:51.349Z,96598.78
2022-10-25T12:31:22.648Z,96596.81
2022-10-25T12:33:56.570Z,96598.84
2022-10-25T12:36:31.793Z,96601.47
2022-10-25T12:39:05.525Z,96600.41
2022-10-25T12:41:38.779Z,96597.84
2022-10-25T12:44:23.964Z,96591.78
2022-10-25T12:47:05.289Z,96592.94
2022-10-25T12:53:20.797Z,96594.75
2022-10-25T12:56:01.730Z,96596.16
2022-10-25T12:58:50.757Z,96592.94
2022-10-25T13:01:39.335Z,96591.59
2022-10-25T13:04:46.558Z,96586.56
2022-10-25T13:07:15.780Z,96589.72
2022-10-25T13:09:44.416Z,96593.22
2022-10-25T13:12:23.956Z,96584.19
2022-10-25T13:14:54.763Z,96582.19
2022-10-25T13:17:48.198Z,96584.41
2022-10-25T13:20:51.324Z,96588.63
2022-10-25T13:23:53.880Z,96583.06
2022-10-25T13:26:25.692Z,96585.88
2022-10-25T13:28:57.544Z,96578.06
2022-10-25T13:31:46.980Z,96579.69
2022-10-25T13:34:23.740Z,96576.78
2022-10-25T13:36:55.330Z,96575.72
2022-10-25T13:39:27.455Z,96570.47
2022-10-25T13:42:01.847Z,96565.84
2022-10-25T13:44:31.885Z,96570.41
2022-10-25T13:47:00.728Z,96575.97
2022-10-25T13:49:32.891Z,96567.91
2022-10-25T13:52:05.196Z,96568.00
2022-10-25T13:54:51.890Z,96570.03
2022-10-25T13:57:52.923Z,96561.06
2022-10-25T14:00:34.716Z,96560.56
2022-10-25T14:03:34.490Z,96558.25
2022-10-25T14:06:23.954Z,96559.09
2022-10-25T14:09:00.599Z,96557.44
2022-10-25T14:11:37.655Z,96563.88
2022-10-25T14:14:17.256Z,96564.09
2022-10-25T14:17:00.808Z,96554.03
2022-10-25T14:19:37.945Z,96549.63
2022-10-25T14:22:14.971Z,96544.78
2022-10-25T14:24:47.727Z,96550.53
2022-10-25T14:27:30.905Z,96550.31
2022-10-25T14:30:24.305Z,96552.78
2022-10-25T14:32:56.488Z,96548.66
2022-10-25T14:35:27.059Z,96547.13
2022-10-25T14:37:55.689Z,96543.84
2022-10-25T14:40:26.051Z,96544.66
2022-10-25T14:42:55.709Z,96546.38
2022-10-25T14:45:26.421Z,96551.84
2022-10-25T14:47:56.769Z,96550.44
2022-10-25T14:50:27.016Z,96548.53
2022-10-25T14:53:05.603Z,96557.38
2022-10-25T14:55:35.060Z,96545.50
2022-10-25T14:58:05.344Z,96544.78
2022-10-25T15:00:33.938Z,96552.91
2022-10-25T15:03:06.679Z,96538.13
2022-10-25T15:05:35.140Z,96546.28
2022-10-25T15:08:03.534Z,96535.84
2022-10-25T15:10:40.786Z,96529.34
2022-10-25T15:13:16.633Z,96535.03
2022-10-25T15:15:46.680Z,96525.84
2022-10-25T15:18:35.461Z,96532.59
2022-10-25T15:21:07.320Z,96533.69
2022-10-25T15:23:36.237Z,96536.22
2022-10-25T15:26:24.393Z,96536.31
2022-10-25T15:28:55.500Z,96539.81
2022-10-25T15:31:26.025Z,96526.91
2022-10-25T15:34:03.092Z,96534.22
2022-10-25T15:36:33.651Z,96530.16
2022-10-25T15:39:10.166Z,96533.34
2022-10-25T15:41:41.160Z,96540.00
2022-10-25T15:44:09.744Z,96535.56
2022-10-25T15:46:38.429Z,96544.09
2022-10-25T15:49:09.059Z,96536.53
2022-10-25T15:51:40.044Z,96540.06
2022-10-25T15:54:14.635Z,96543.78
2022-10-25T15:56:43.036Z,96540.56
2022-10-25T15:59:11.507Z,96546.19
2022-10-25T16:01:42.702Z,96541.69
2022-10-25T16:04:15.507Z,96543.78
2022-10-25T16:06:44.677Z,96542.56
2022-10-25T16:09:13.228Z,96544.25
2022-10-25T16:11:46.297Z,96550.66
2022-10-25T16:14:21.736Z,96541.00
2022-10-25T16:16:50.716Z,96551.34
2022-10-25T16:19:21.928Z,96545.59
2022-10-25T16:21:50.326Z,96545.59
2022-10-25T16:24:19.718Z,96547.06
2022-10-25T16:26:49.353Z,96546.47
2022-10-25T16:29:19.572Z,96551.59
2022-10-25T16:31:48.311Z,96552.25
2022-10-25T16:34:17.385Z,96546.06
2022-10-25T16:36:48.196Z,96545.47
2022-10-25T16:39:16.929Z,96547.91
2022-10-25T16:41:47.191Z,96547.31
2022-10-25T16:44:18.200Z,96550.19
2022-10-25T16:46:47.092Z,96548.94
2022-10-25T16:49:15.440Z,96552.00
2022-10-25T16:51:44.207Z,96547.69
2022-10-25T16:54:15.609Z,96551.53
2022-10-25T16:56:44.153Z,96560.78
2022-10-25T16:59:12.503Z,96565.09
2022-10-25T17:01:44.573Z,96564.25
2022-10-25T17:04:14.678Z,96569.59
2022-10-25T17:06:43.218Z,96569.38
2022-10-25T17:09:13.243Z,96576.97
2022-10-25T17:11:41.697Z,96578.41
2022-10-25T17:14:10.637Z,96580.03
2022-10-25T17:16:40.684Z,96578.34
2022-10-25T17:19:10.644Z,96581.84
2022-10-25T17:21:39.381Z,96583.44
2022-10-25T17:24:09.710Z,96587.34
2022-10-25T17:26:40.236Z,96586.53
2022-10-25T17:29:08.677Z,96584.69
2022-10-25T17:31:37.403Z,96578.34
2022-10-25T17:34:05.888Z,96592.31
2022-10-25T17:36:34.616Z,96593.06
2022-10-25T17:39:03.032Z,96594.91
2022-10-25T17:41:31.533Z,96587.66
2022-10-25T17:44:01.287Z,96589.66
2022-10-25T17:46:31.757Z,96587.13
2022-10-25T17:49:03.233Z,96584.81
2022-10-25T17:51:33.220Z,96588.66
2022-10-25T17:54:01.804Z,96584.78
2022-10-25T17:59:07.132Z,96586.91
2022-10-25T18:01:37.032Z,96592.63
2022-10-25T18:04:05.504Z,96590.28
2022-10-25T18:06:33.865Z,96596.38
2022-10-25T18:09:03.846Z,96596.81
2022-10-25T18:11:32.468Z,96597.56
2022-10-25T18:14:02.184Z,96596.66
2022-10-25T18:16:33.220Z,96593.09
2022-10-25T18:19:03.424Z,96594.25
2022-10-25T18:21:33.151Z,96593.38
2022-10-25T18:24:03.655Z,96584.28
2022-10-25T18:26:33.139Z,96586.38
2022-10-25T18:29:01.961Z,96575.09
2022-10-25T18:31:31.979Z,96584.13
2022-10-25T18:34:03.456Z,96581.63
2022-10-25T18:36:32.562Z,96581.19
2022-10-25T18:39:01.240Z,96585.25
2022-10-25T18:41:31.496Z,96581.31
2022-10-25T18:44:00.755Z,96577.00
2022-10-25T18:46:30.846Z,96582.50
2022-10-25T18:49:00.970Z,96571.41
2022-10-25T18:51:30.162Z,96580.41
2022-10-25T18:53:59.829Z,96575.09
2022-10-25T18:56:29.313Z,96573.81
2022-10-25T18:58:59.038Z,96570.25
2022-10-25T19:01:32.543Z,96569.13
2022-10-25T19:04:04.161Z,96559.31
2022-10-25T19:06:33.783Z,96563.66
2022-10-25T19:09:03.951Z,96558.47
2022-10-25T19:11:33.301Z,96562.84
2022-10-25T19:14:03.213Z,96569.53
2022-10-25T19:16:31.818Z,96564.50
2022-10-25T19:19:07.108Z,96564.69
2022-10-25T19:21:35.972Z,96554.03
2022-10-25T19:24:04.742Z,96557.31
2022-10-25T19:26:33.608Z,96557.16
2022-10-25T19:29:02.399Z,96555.94
2022-10-25T19:31:30.908Z,96554.72
2022-10-25T19:34:00.452Z,96560.91
2022-10-25T19:36:31.502Z,96553.28
2022-10-25T19:39:01.712Z,96548.13
2022-10-25T19:41:30.110Z,96546.50
2022-10-25T19:43:59.383Z,96545.28
2022-10-25T19:46:27.827Z,96547.13
2022-10-25T19:49:00.209Z,96541.00
2022-10-25T19:51:29.968Z,96539.34
2022-10-25T19:53:58.335Z,96541.19
2022-10-25T19:56:26.724Z,96535.41
2022-10-25T19:58:55.189Z,96531.28
2022-10-25T20:01:25.157Z,96528.00
2022-10-25T20:03:55.688Z,96522.00
2022-10-25T20:06:25.526Z,96521.81
2022-10-25T20:08:56.479Z,96527.59
2022-10-25T20:11:28.085Z,96521.28
2022-10-25T20:13:57.647Z,96525.56
2022-10-25T20:16:27.443Z,96517.97
2022-10-25T20:18:56.277Z,96517.34
2022-10-25T20:21:26.158Z,96520.19
2022-10-25T20:23:57.807Z,96512.19
2022-10-25T20:26:27.859Z,96513.66
2022-10-25T20:28:57.977Z,96511.00
2022-10-25T20:31:28.008Z,96517.13
2022-10-25T20:33:56.779Z,96515.31
2022-10-25T20:36:25.947Z,96515.09
2022-10-25T20:38:55.829Z,96514.28
2022-10-25T20:41:26.900Z,96515.94
2022-10-25T20:43:57.740Z,96520.06
2022-10-25T20:46:28.525Z,96517.22
2022-10-25T20:48:58.176Z,96521.69
2022-10-25T20:51:27.057Z,96523.53
2022-10-25T20:53:57.768Z,96518.22
2022-10-25T20:56:26.212Z,96528.22
2022-10-25T20:58:54.506Z,96526.78
2022-10-25T21:01:22.895Z,96517.69
2022-10-25T21:03:51.696Z,96517.69
2022-10-25T21:06:22.437Z,96516.44
2022-10-25T21:08:50.827Z,96520.50
2022-10-25T21:11:22.188Z,96520.66
2022-10-25T21:13:51.919Z,96520.50
2022-10-25T21:16:21.469Z,96517.63
2022-10-25T21:18:50.436Z,96524.78
2022-10-25T21:21:20.570Z,96517.19
2022-10-25T21:23:55.316Z,96519.22
2022-10-25T21:26:27.337Z,96521.25
2022-10-25T21:28:57.344Z,96514.44
2022-10-25T21:31:26.753Z,96516.47
2022-10-25T21:33:59.337Z,96508.47
2022-10-25T21:36:29.188Z,96492.06
2022-10-25T21:38:57.993Z,96494.91
2022-10-25T21:41:27.811Z,96490.78
2022-10-25T21:43:56.948Z,96498.13
2022-10-25T21:46:27.855Z,96506.03
2022-10-25T21:48:56.425Z,96503.09
2022-10-25T21:51:25.368Z,96495.88
2022-10-25T21:53:54.118Z,96494.59
2022-10-25T21:56:23.497Z,96489.00
2022-10-25T21:58:53.452Z,96491.84
2022-10-25T22:01:24.480Z,96480.75
2022-10-25T22:03:53.192Z,96480.09
2022-10-25T22:06:23.895Z,96475.81
2022-10-25T22:08:53.848Z,96469.03
2022-10-25T22:11:24.495Z,96461.88
2022-10-25T22:13:58.436Z,96455.53
2022-10-25T22:16:27.088Z,96454.09
2022-10-25T22:18:57.668Z,96453.44
2022-10-25T22:21:26.892Z,96449.97
2022-10-25T22:23:55.347Z,96464.66
2022-10-25T22:26:23.882Z,96468.22
2022-10-25T22:28:53.553Z,96471.78
2022-10-25T22:31:24.742Z,96478.28
2022-10-25T22:33:54.796Z,96468.22
2022-10-25T22:36:24.333Z,96465.38
2022-10-25T22:38:52.693Z,96469.84
2022-10-25T22:41:23.208Z,96466.56
2022-10-25T22:43:51.841Z,96466.56
2022-10-25T22:46:25.027Z,96468.22
2022-10-25T22:48:56.653Z,96467.75
2022-10-25T22:51:27.045Z,96467.75
2022-10-25T22:53:55.446Z,96460.59
2022-10-25T22:56:25.436Z,96465.91
2022-10-25T22:58:55.864Z,96461.44
2022-10-25T23:01:26.015Z,96457.28
2022-10-25T23:03:58.191Z,96452.84
2022-10-25T23:06:28.630Z,96449.31
2022-10-25T23:08:58.891Z,96439.97
2022-10-25T23:11:29.041Z,96432.84
2022-10-25T23:13:58.251Z,96424.03
2022-10-25T23:16:26.983Z,96431.00
2022-10-25T23:18:57.005Z,96427.53
2022-10-25T23:21:27.757Z,96420.19
2022-10-25T23:23:57.291Z,96419.81
2022-10-25T23:26:27.129Z,96414.31
2022-10-25T23:28:56.193Z,96407.00
2022-10-25T23:31:25.812Z,96417.25
2022-10-25T23:33:56.911Z,96422.19
2022-10-25T23:36:27.171Z,96427.31
2022-10-25T23:38:58.850Z,96430.44
2022-10-25T23:41:27.231Z,96435.59
2022-10-25T23:43:55.567Z,96427.59
2022-10-25T23:46:23.928Z,96432.91
2022-10-25T23:48:52.250Z,96420.44
2022-10-25T23:51:21.979Z,96435.59
2022-10-25T23:53:50.321Z,96447.22
2022-10-25T23:56:18.680Z,96451.53
2022-10-25T23:58:50.551Z,96457.84
